This is the latest recevied weather packets stored in our database for station/object JE3XST-13. If no packets are shown the sender has not sent any weather packets the latest 1 day(s).
| Time | Temp. | Humidity | Pressure | Rain* | Wind** | Luminosity | Snow |
|---|---|---|---|---|---|---|---|
| 1777995918 | 15° C | 72% | 1021.6 hPa | 0 mm | 0 m/s | - | - |
| 1777994119 | 15° C | 72% | 1021.7 hPa | 0 mm | 0 m/s | - | - |
| 1777992319 | 15° C | 72% | 1021.6 hPa | 0 mm | 0 m/s | - | - |
| 1777990519 | 15.56° C | 69% | 1021.6 hPa | 0 mm | 0 m/s | - | - |
| 1777988720 | 16.11° C | 67% | 1021.6 hPa | 0 mm | 0 m/s | - | - |
| 1777986918 | 17.22° C | 61% | 1021.6 hPa | 0 mm | 0 m/s | - | - |
| 1777985118 | 17.78° C | 58% | 1021.4 hPa | 0 mm | 0 m/s | - | - |
| 1777983318 | 17.78° C | 57% | 1021.2 hPa | 0 mm | 1.34 m/s, 165° | - | - |
| 1777981518 | 18.33° C | 57% | 1020.9 hPa | 0 mm | 0.45 m/s, 150° | - | - |
| 1777979718 | 18.33° C | 56% | 1020.6 hPa | 0 mm | 0 m/s | - | - |
| 1777977919 | 18.89° C | 53% | 1020 hPa | 0 mm | 0 m/s | - | - |
| 1777976119 | 19.44° C | 49% | 1019.8 hPa | 0 mm | 0.89 m/s, 94° | - | - |
| 1777974318 | 20° C | 45% | 1019.4 hPa | 0 mm | 0 m/s | - | - |
| 1777972519 | 21.11° C | 36% | 1018.9 hPa | 0 mm | 0.45 m/s, 54° | - | - |
| 1777970719 | 21.67° C | 33% | 1018.6 hPa | 0 mm | 2.24 m/s, 89° | - | - |
| 1777968919 | 22.78° C | 30% | 1018.3 hPa | 0 mm | 2.68 m/s, 83° | - | - |
| 1777967119 | 23.33° C | 27% | 1017.9 hPa | 0 mm | 2.68 m/s, 66° | - | - |
| 1777965318 | 23.89° C | 25% | 1017.9 hPa | 0 mm | 0.45 m/s, 188° | - | - |
| 1777963519 | 23.89° C | 24% | 1018 hPa | 0 mm | 0.89 m/s, 158° | - | - |
| 1777961719 | 23.89° C | 24% | 1018.2 hPa | 0 mm | 1.34 m/s, 186° | - | - |
| 1777959919 | 23.33° C | 23% | 1018.3 hPa | 0 mm | 1.34 m/s, 127° | - | - |
| 1777958118 | 22.78° C | 24% | 1018.6 hPa | 0 mm | 2.24 m/s, 168° | - | - |
| 1777956318 | 21.67° C | 24% | 1018.9 hPa | 0 mm | 0 m/s | - | - |
| 1777954519 | 21.67° C | 26% | 1019.2 hPa | 0 mm | 1.34 m/s, 102° | - | - |
* Rain latest hour (hover to see other rain measurements)
** Current wind speed in m/s (hover to see current wind gust speed)